createdAt,value
2019-01-27T00:01:44.460Z,52.77
2019-01-27T00:04:48.693Z,58.47
2019-01-27T00:07:52.699Z,52.03
2019-01-27T00:10:56.744Z,60.60
2019-01-27T00:14:00.931Z,58.67
2019-01-27T00:17:06.515Z,53.00
2019-01-27T00:20:12.084Z,55.20
2019-01-27T00:23:16.082Z,61.60
2019-01-27T00:26:20.273Z,60.90
2019-01-27T00:29:24.459Z,62.83
2019-01-27T00:32:28.503Z,62.60
2019-01-27T00:35:32.551Z,67.03
2019-01-27T00:38:36.550Z,62.67
2019-01-27T00:41:40.613Z,66.37
2019-01-27T00:44:44.589Z,62.80
2019-01-27T00:47:48.953Z,61.60
2019-01-27T00:50:53.379Z,58.97
2019-01-27T00:53:57.416Z,65.33
2019-01-27T00:57:01.462Z,56.90
2019-01-27T01:00:08.160Z,61.50
2019-01-27T01:03:13.345Z,66.43
2019-01-27T01:06:18.861Z,63.23
2019-01-27T01:09:23.013Z,67.37
2019-01-27T01:12:27.539Z,67.43
2019-01-27T01:15:31.755Z,64.83
2019-01-27T01:18:35.977Z,64.13
2019-01-27T01:21:51.943Z,68.03
2019-01-27T01:24:55.993Z,72.33
2019-01-27T01:28:00.126Z,66.10
2019-01-27T01:31:04.204Z,62.17
2019-01-27T01:34:11.509Z,61.87
2019-01-27T01:37:16.482Z,57.73
2019-01-27T01:40:23.639Z,61.00
2019-01-27T01:43:28.002Z,62.13
2019-01-27T01:46:32.374Z,54.87
2019-01-27T01:49:36.363Z,61.90
2019-01-27T01:52:40.350Z,56.40
2019-01-27T01:55:47.234Z,50.90
2019-01-27T01:58:51.192Z,56.67
2019-01-27T02:01:55.153Z,58.33
2019-01-27T02:04:59.290Z,54.30
2019-01-27T02:08:04.357Z,57.40
2019-01-27T02:11:08.599Z,53.77
2019-01-27T02:14:15.679Z,55.13
2019-01-27T02:17:19.660Z,50.27
2019-01-27T02:20:23.759Z,47.00
2019-01-27T02:23:33.999Z,49.67
2019-01-27T02:26:40.836Z,41.87
2019-01-27T02:29:44.776Z,43.60
2019-01-27T02:32:48.771Z,43.10
2019-01-27T02:35:52.946Z,41.47
2019-01-27T02:38:57.080Z,40.23
2019-01-27T02:42:01.036Z,42.53
2019-01-27T02:45:07.634Z,42.60
2019-01-27T02:48:13.127Z,42.97
2019-01-27T02:51:17.079Z,45.87
2019-01-27T02:54:22.248Z,39.40
2019-01-27T02:57:26.421Z,41.63
2019-01-27T03:00:30.454Z,44.70
2019-01-27T03:03:34.408Z,45.00
2019-01-27T03:07:03.628Z,47.53
2019-01-27T03:10:11.709Z,46.43
2019-01-27T03:13:15.907Z,46.57
2019-01-27T03:16:19.960Z,49.37
2019-01-27T03:19:26.325Z,57.87
2019-01-27T03:22:30.493Z,50.73
2019-01-27T03:25:34.535Z,56.90
2019-01-27T03:28:43.173Z,66.03
2019-01-27T03:31:47.123Z,58.17
2019-01-27T03:34:51.296Z,62.47
2019-01-27T03:37:57.181Z,63.07
2019-01-27T03:41:01.140Z,64.43
2019-01-27T03:44:07.332Z,64.73
2019-01-27T03:47:12.334Z,67.73
2019-01-27T03:50:17.994Z,63.73
2019-01-27T03:53:24.423Z,65.77
2019-01-27T03:56:28.438Z,74.57
2019-01-27T03:59:32.466Z,67.63
2019-01-27T04:02:39.497Z,66.90
2019-01-27T04:05:43.658Z,66.17
2019-01-27T04:08:47.710Z,68.50
2019-01-27T04:11:51.736Z,65.53
2019-01-27T04:14:55.705Z,58.93
2019-01-27T04:17:59.899Z,57.73
2019-01-27T04:21:05.162Z,59.17
2019-01-27T04:24:11.427Z,62.23
2019-01-27T04:27:15.504Z,56.20
2019-01-27T04:30:26.754Z,59.70
2019-01-27T04:33:33.388Z,61.10
2019-01-27T04:36:37.430Z,56.73
2019-01-27T04:39:41.404Z,54.37
2019-01-27T04:42:48.863Z,53.20
2019-01-27T04:45:54.088Z,51.63
2019-01-27T04:49:02.718Z,57.83
2019-01-27T04:52:10.198Z,53.03
2019-01-27T04:55:14.672Z,50.23
2019-01-27T04:58:19.015Z,54.43
2019-01-27T05:01:31.674Z,50.87
2019-01-27T05:04:39.511Z,53.33
2019-01-27T05:07:45.006Z,53.60
2019-01-27T05:10:49.027Z,55.00
2019-01-27T05:13:55.490Z,54.53
2019-01-27T05:17:02.212Z,55.07
2019-01-27T05:20:09.605Z,52.97
2019-01-27T05:23:15.818Z,54.50
2019-01-27T05:26:25.053Z,54.07
2019-01-27T05:29:28.971Z,56.57
2019-01-27T05:32:34.460Z,55.07
2019-01-27T05:35:41.538Z,58.83
2019-01-27T05:38:45.510Z,56.83
2019-01-27T05:41:49.482Z,56.77
2019-01-27T05:44:53.438Z,58.20
2019-01-27T05:48:00.439Z,55.37
2019-01-27T05:51:09.591Z,57.60
2019-01-27T05:54:13.598Z,54.93
2019-01-27T05:57:17.654Z,56.13
2019-01-27T06:00:37.865Z,57.27
2019-01-27T06:03:45.801Z,57.27
2019-01-27T06:06:51.316Z,54.43
2019-01-27T06:09:56.381Z,47.70
2019-01-27T06:13:03.161Z,53.77
2019-01-27T06:16:07.224Z,51.47
2019-01-27T06:19:11.114Z,51.33
2019-01-27T06:22:15.500Z,52.83
2019-01-27T06:25:19.804Z,48.70
2019-01-27T06:28:23.757Z,46.40
2019-01-27T06:31:30.871Z,43.03
2019-01-27T06:34:36.932Z,45.07
2019-01-27T06:37:42.244Z,42.10
2019-01-27T06:40:46.119Z,40.63
2019-01-27T06:43:53.901Z,40.17
2019-01-27T06:46:57.757Z,36.03
2019-01-27T06:50:06.779Z,36.40
2019-01-27T06:53:10.740Z,36.40
2019-01-27T06:56:14.755Z,33.87
2019-01-27T06:59:43.619Z,32.57
2019-01-27T07:02:52.911Z,31.83
2019-01-27T07:06:22.042Z,31.40
2019-01-27T07:09:34.452Z,33.70
2019-01-27T07:13:03.377Z,29.37
2019-01-27T07:16:32.513Z,31.40
2019-01-27T07:20:04.627Z,27.47
2019-01-27T07:23:28.051Z,29.77
2019-01-27T07:27:00.318Z,28.77
2019-01-27T07:30:25.806Z,26.07
2019-01-27T07:33:51.458Z,24.47
2019-01-27T07:37:14.538Z,26.03
2019-01-27T07:40:46.478Z,24.70
2019-01-27T07:44:12.526Z,23.03
2019-01-27T07:47:43.384Z,23.17
2019-01-27T07:51:04.569Z,24.47
2019-01-27T07:54:20.143Z,24.30
2019-01-27T07:57:39.486Z,22.90
2019-01-27T08:00:48.106Z,25.43
2019-01-27T08:04:18.874Z,23.00
2019-01-27T08:07:48.010Z,23.13
2019-01-27T08:11:29.255Z,23.60
2019-01-27T08:14:51.161Z,24.80
2019-01-27T08:18:05.539Z,25.17
2019-01-27T08:21:27.245Z,26.33
2019-01-27T08:24:50.491Z,22.47
2019-01-27T08:28:03.249Z,25.13
2019-01-27T08:31:20.885Z,26.33
2019-01-27T08:34:30.653Z,25.00
2019-01-27T08:37:39.901Z,26.37
2019-01-27T08:40:53.427Z,24.87
2019-01-27T08:44:07.968Z,28.20
2019-01-27T08:47:12.011Z,28.90
2019-01-27T08:50:21.592Z,29.30
2019-01-27T08:53:27.831Z,29.07
2019-01-27T08:56:31.702Z,27.53
2019-01-27T08:59:35.793Z,26.90
2019-01-27T09:02:58.769Z,31.17
2019-01-27T09:06:21.719Z,27.20
2019-01-27T09:09:44.598Z,26.20
2019-01-27T09:12:56.841Z,29.77
2019-01-27T09:16:22.613Z,31.00
2019-01-27T09:19:42.536Z,29.37
2019-01-27T09:23:09.259Z,30.10
2019-01-27T09:26:27.538Z,28.03
2019-01-27T09:29:48.433Z,30.53
2019-01-27T09:33:00.100Z,25.37
2019-01-27T09:36:23.442Z,26.80
2019-01-27T09:39:45.186Z,24.63
2019-01-27T09:43:14.150Z,22.70
2019-01-27T09:46:28.554Z,26.87
2019-01-27T09:49:48.161Z,22.67
2019-01-27T09:52:59.522Z,22.83
2019-01-27T09:56:22.553Z,21.73
2019-01-27T09:59:35.022Z,23.00
2019-01-27T10:02:57.096Z,24.93
2019-01-27T10:06:23.605Z,22.77
2019-01-27T10:09:49.722Z,19.07
2019-01-27T10:13:00.600Z,20.97
2019-01-27T10:16:17.015Z,20.13
2019-01-27T10:19:30.780Z,20.37
2019-01-27T10:22:44.464Z,20.00
2019-01-27T10:26:16.298Z,21.83
2019-01-27T10:29:29.275Z,20.97
2019-01-27T10:32:43.100Z,21.87
2019-01-27T10:36:01.056Z,21.27
2019-01-27T10:39:18.164Z,23.47
2019-01-27T10:42:29.773Z,23.83
2019-01-27T10:45:55.677Z,22.53
2019-01-27T10:49:25.105Z,25.87
2019-01-27T10:52:50.973Z,22.07
2019-01-27T10:56:00.977Z,22.70
2019-01-27T10:59:16.472Z,23.33
2019-01-27T11:02:36.449Z,21.53
2019-01-27T11:05:48.988Z,22.50
2019-01-27T11:09:12.665Z,21.60
2019-01-27T11:12:33.959Z,22.67
2019-01-27T11:15:55.984Z,24.80
2019-01-27T11:19:17.719Z,23.23
2019-01-27T11:22:32.097Z,24.07
2019-01-27T11:26:00.805Z,21.57
2019-01-27T11:29:15.083Z,22.97
2019-01-27T11:32:41.061Z,23.70
2019-01-27T11:36:06.920Z,23.67
2019-01-27T11:39:35.975Z,22.07
2019-01-27T11:43:01.953Z,22.67
2019-01-27T11:46:15.453Z,24.73
2019-01-27T11:49:37.392Z,23.67
2019-01-27T11:52:45.190Z,24.37
2019-01-27T11:55:50.494Z,22.20
2019-01-27T11:58:54.530Z,21.00
2019-01-27T12:01:58.519Z,19.47
2019-01-27T12:05:04.665Z,18.00
2019-01-27T12:08:08.704Z,17.43
2019-01-27T12:11:12.591Z,18.67
2019-01-27T12:14:16.635Z,17.90
2019-01-27T12:17:20.596Z,18.20
2019-01-27T12:20:27.124Z,18.33
2019-01-27T12:23:31.290Z,16.83
2019-01-27T12:26:35.314Z,17.87
2019-01-27T12:29:41.441Z,16.43
2019-01-27T12:32:45.414Z,15.87
2019-01-27T12:35:49.362Z,16.30
2019-01-27T12:38:58.061Z,15.67
2019-01-27T12:42:02.124Z,15.43
2019-01-27T12:45:06.982Z,15.87
2019-01-27T12:48:10.913Z,17.67
2019-01-27T12:51:14.953Z,15.30
2019-01-27T12:54:19.960Z,17.20
2019-01-27T12:57:23.918Z,16.13
2019-01-27T13:00:32.154Z,15.83
2019-01-27T13:03:36.441Z,14.37
2019-01-27T13:06:42.953Z,14.33
2019-01-27T13:09:46.927Z,14.33
2019-01-27T13:12:50.880Z,13.60
2019-01-27T13:15:54.873Z,14.60
2019-01-27T13:18:58.882Z,12.20
2019-01-27T13:22:02.934Z,16.10
2019-01-27T13:25:08.395Z,15.30
2019-01-27T13:28:12.454Z,15.20
2019-01-27T13:31:16.428Z,13.43
2019-01-27T13:34:23.300Z,15.53
2019-01-27T13:37:27.346Z,15.27
2019-01-27T13:40:34.492Z,13.77
2019-01-27T13:43:38.494Z,12.40
2019-01-27T13:46:42.516Z,14.43
2019-01-27T13:49:46.471Z,14.60
2019-01-27T13:52:50.605Z,12.80
2019-01-27T13:55:56.535Z,12.80
2019-01-27T13:59:00.488Z,14.70
2019-01-27T14:02:04.966Z,21.50
2019-01-27T14:05:09.694Z,16.33
2019-01-27T14:08:13.965Z,14.53
2019-01-27T14:11:17.909Z,15.57
2019-01-27T14:14:21.940Z,15.80
2019-01-27T14:17:27.419Z,14.37
2019-01-27T14:20:31.446Z,15.40
2019-01-27T14:23:35.509Z,16.10
2019-01-27T14:26:39.485Z,13.30
2019-01-27T14:29:45.571Z,14.13
2019-01-27T14:32:50.898Z,15.77
2019-01-27T14:35:54.870Z,13.67
2019-01-27T14:38:58.899Z,12.57
2019-01-27T14:42:03.033Z,13.23
2019-01-27T14:45:10.055Z,12.33
2019-01-27T14:48:14.065Z,12.63
2019-01-27T14:51:18.042Z,11.53
2019-01-27T14:54:21.966Z,14.17
2019-01-27T14:57:25.933Z,13.90
2019-01-27T15:00:36.187Z,12.30
2019-01-27T15:03:39.916Z,12.17
2019-01-27T15:06:43.952Z,12.40
2019-01-27T15:09:47.845Z,12.50
2019-01-27T15:12:51.960Z,12.07
2019-01-27T15:15:55.935Z,13.37
2019-01-27T15:18:59.928Z,13.77
2019-01-27T15:22:03.992Z,15.20
2019-01-27T15:25:08.678Z,13.97
2019-01-27T15:28:12.757Z,14.20
2019-01-27T15:31:16.749Z,15.37
2019-01-27T15:34:20.667Z,15.20
2019-01-27T15:37:24.797Z,16.47
2019-01-27T15:40:30.284Z,16.63
2019-01-27T15:43:34.165Z,17.70
2019-01-27T15:46:38.122Z,17.73
2019-01-27T15:49:42.070Z,16.73
2019-01-27T15:52:46.019Z,18.33
2019-01-27T15:55:50.106Z,18.23
2019-01-27T15:58:53.973Z,18.27
2019-01-27T16:01:58.014Z,21.27
2019-01-27T16:05:02.037Z,20.37
2019-01-27T16:08:06.384Z,21.47
2019-01-27T16:11:10.431Z,20.53
2019-01-27T16:14:14.409Z,21.80
2019-01-27T16:17:18.435Z,21.63
2019-01-27T16:20:22.697Z,23.57
2019-01-27T16:23:48.418Z,24.90
2019-01-27T16:26:53.491Z,21.77
2019-01-27T16:30:04.417Z,22.20
2019-01-27T16:33:11.618Z,24.00
2019-01-27T16:36:15.590Z,24.40
2019-01-27T16:39:19.637Z,23.83
2019-01-27T16:42:23.658Z,25.83
2019-01-27T16:45:27.623Z,27.53
2019-01-27T16:48:31.602Z,24.93
2019-01-27T16:51:35.617Z,24.83
2019-01-27T16:54:42.709Z,27.13
2019-01-27T16:57:46.851Z,28.13
2019-01-27T17:00:50.977Z,28.77
2019-01-27T17:03:55.112Z,27.30
2019-01-27T17:06:59.076Z,26.83
2019-01-27T17:10:03.118Z,25.77
2019-01-27T17:13:07.120Z,28.63
2019-01-27T17:16:11.148Z,29.37
2019-01-27T17:19:15.037Z,28.97
2019-01-27T17:22:18.997Z,32.13
2019-01-27T17:25:23.352Z,29.83
2019-01-27T17:28:27.408Z,30.03
2019-01-27T17:31:31.368Z,30.37
2019-01-27T17:34:35.262Z,29.70
2019-01-27T17:37:39.291Z,29.30
2019-01-27T17:40:44.630Z,33.03
2019-01-27T17:43:48.671Z,30.20
2019-01-27T17:46:52.703Z,27.73
2019-01-27T17:49:56.639Z,33.20
2019-01-27T17:53:03.443Z,32.57
2019-01-27T17:56:07.477Z,32.07
2019-01-27T17:59:32.893Z,33.40
2019-01-27T18:02:46.744Z,35.60
2019-01-27T18:05:58.365Z,32.67
2019-01-27T18:09:10.149Z,31.53
2019-01-27T18:12:23.183Z,33.47
2019-01-27T18:15:27.227Z,32.43
2019-01-27T18:18:31.210Z,32.07
2019-01-27T18:21:37.627Z,33.23
2019-01-27T18:24:41.619Z,40.00
2019-01-27T18:27:45.657Z,33.53
2019-01-27T18:30:49.731Z,33.83
2019-01-27T18:33:53.806Z,31.90
2019-01-27T18:36:57.855Z,34.33
2019-01-27T18:40:01.931Z,33.17
2019-01-27T18:43:06.390Z,36.50
2019-01-27T18:46:10.742Z,34.53
2019-01-27T18:49:14.730Z,33.87
2019-01-27T18:52:18.772Z,35.13
2019-01-27T18:55:53.981Z,38.63
2019-01-27T18:59:16.037Z,40.63
2019-01-27T19:02:45.315Z,37.70
2019-01-27T19:06:23.938Z,37.63
2019-01-27T19:09:55.726Z,46.37
2019-01-27T19:13:18.779Z,47.27
2019-01-27T19:16:49.644Z,44.87
2019-01-27T19:20:00.619Z,49.77
2019-01-27T19:23:18.471Z,41.57
2019-01-27T19:26:47.330Z,43.57
2019-01-27T19:29:58.234Z,43.77
2019-01-27T19:33:12.025Z,46.57
2019-01-27T19:36:33.823Z,38.10
2019-01-27T19:39:49.087Z,36.73
2019-01-27T19:43:05.312Z,35.70
2019-01-27T19:46:42.693Z,34.20
2019-01-27T19:50:05.865Z,27.97
2019-01-27T19:53:44.470Z,29.23
2019-01-27T19:57:16.745Z,37.20
2019-01-27T20:00:32.052Z,32.90
2019-01-27T20:03:54.182Z,27.30
2019-01-27T20:07:16.105Z,34.37
2019-01-27T20:10:45.611Z,33.57
2019-01-27T20:14:08.072Z,31.13
2019-01-27T20:17:30.308Z,30.07
2019-01-27T20:20:44.333Z,29.67
2019-01-27T20:24:07.570Z,31.57
2019-01-27T20:27:36.842Z,27.37
2019-01-27T20:31:06.100Z,26.73
2019-01-27T20:34:18.268Z,27.47
2019-01-27T20:37:33.603Z,27.03
2019-01-27T20:41:00.077Z,24.50
2019-01-27T20:44:26.440Z,27.43
2019-01-27T20:47:39.137Z,24.30
2019-01-27T20:51:08.549Z,23.33
2019-01-27T20:54:25.553Z,24.60
2019-01-27T20:57:51.471Z,25.03
2019-01-27T21:01:10.171Z,29.50
2019-01-27T21:04:36.214Z,25.03
2019-01-27T21:07:59.354Z,30.90
2019-01-27T21:11:21.454Z,24.10
2019-01-27T21:14:50.640Z,31.50
2019-01-27T21:18:12.177Z,23.03
2019-01-27T21:21:16.232Z,22.70
2019-01-27T21:24:20.679Z,25.30
2019-01-27T21:27:24.757Z,19.27
2019-01-27T21:30:28.895Z,23.40
2019-01-27T21:33:33.022Z,26.50
2019-01-27T21:36:37.086Z,22.10
2019-01-27T21:39:41.193Z,16.73
2019-01-27T21:42:47.508Z,19.57
2019-01-27T21:45:51.166Z,19.20
2019-01-27T21:48:59.425Z,16.57
2019-01-27T21:52:06.208Z,14.03
2019-01-27T21:55:10.707Z,21.17
2019-01-27T21:58:14.910Z,18.63
2019-01-27T22:01:18.945Z,22.97
2019-01-27T22:04:22.926Z,23.53
2019-01-27T22:07:26.989Z,21.73
2019-01-27T22:10:30.946Z,19.23
2019-01-27T22:13:34.951Z,24.47
2019-01-27T22:16:38.969Z,33.20
2019-01-27T22:19:43.089Z,26.73
2019-01-27T22:22:48.314Z,24.87
2019-01-27T22:25:52.154Z,28.83
2019-01-27T22:28:56.098Z,26.80
2019-01-27T22:32:00.056Z,30.97
2019-01-27T22:35:04.412Z,28.67
2019-01-27T22:38:08.514Z,26.67
2019-01-27T22:41:12.552Z,33.67
2019-01-27T22:44:16.519Z,29.17
2019-01-27T22:47:20.448Z,31.57
2019-01-27T22:50:24.505Z,31.50
2019-01-27T22:53:28.450Z,27.57
2019-01-27T22:56:32.462Z,30.53
2019-01-27T22:59:36.418Z,18.83
2019-01-27T23:02:40.458Z,27.40
2019-01-27T23:05:44.505Z,26.77
2019-01-27T23:08:48.442Z,16.40
2019-01-27T23:11:52.448Z,18.43
2019-01-27T23:14:56.324Z,21.40
2019-01-27T23:18:00.296Z,18.97
2019-01-27T23:21:04.332Z,16.87
2019-01-27T23:24:08.585Z,23.97
2019-01-27T23:27:12.520Z,13.77
2019-01-27T23:30:16.548Z,15.23
2019-01-27T23:33:20.494Z,17.17
2019-01-27T23:36:24.543Z,28.53
2019-01-27T23:39:29.900Z,20.97
2019-01-27T23:42:33.955Z,20.93
2019-01-27T23:45:41.084Z,15.87
2019-01-27T23:48:45.033Z,23.77
2019-01-27T23:51:48.929Z,17.77
2019-01-27T23:54:52.855Z,18.73
2019-01-27T23:57:56.901Z,18.70
